Time;durP1;ratioP1;P1;durP2;ratioP2;P2;SDS_P1;SDS_P2;PMS_P1;PMS_P2;Temp;Humidity;BMP_temperature;BMP_pressure;BME280_temperature;BME280_humidity;BME280_pressure;Samples;Min_cycle;Max_cycle;Signal;HPM_P1;HPM_P2
2022/04/27 00:00:51;;;;;;;2.47;1.00;;;9.20;99.90;;;;;;5115326;28;20024;-74
2022/04/27 00:03:17;;;;;;;0.90;0.90;;;9.20;99.90;;;;;;5115894;28;20063;-74
2022/04/27 00:05:43;;;;;;;1.25;0.73;;;9.20;99.90;;;;;;5115284;28;20080;-72
2022/04/27 00:08:09;;;;;;;2.15;1.10;;;9.20;99.90;;;;;;5115724;28;20035;-73
2022/04/27 00:10:34;;;;;;;1.10;0.90;;;9.20;99.90;;;;;;5115719;28;20030;-73
2022/04/27 00:13:00;;;;;;;0.85;0.70;;;9.20;99.90;;;;;;5115494;28;20488;-73
2022/04/27 00:15:28;;;;;;;1.00;0.80;;;9.20;99.90;;;;;;5115275;28;20127;-73
2022/04/27 00:17:53;;;;;;;1.15;0.90;;;9.20;99.90;;;;;;5114952;28;20028;-73
2022/04/27 00:20:19;;;;;;;0.85;0.80;;;9.20;99.90;;;;;;5115551;28;20508;-73
2022/04/27 00:22:45;;;;;;;0.90;0.70;;;9.20;99.90;;;;;;5114997;28;20380;-74
2022/04/27 00:25:10;;;;;;;1.52;1.00;;;9.20;99.90;;;;;;5115516;28;20031;-74
2022/04/27 00:27:36;;;;;;;1.33;0.85;;;9.20;99.90;;;;;;5114869;28;20103;-74
2022/04/27 00:30:02;;;;;;;4.05;1.05;;;9.10;99.90;;;;;;5115658;28;20034;-74
2022/04/27 00:32:27;;;;;;;1.30;0.80;;;9.20;99.90;;;;;;5114892;27;20035;-73
2022/04/27 00:34:53;;;;;;;1.05;0.90;;;9.10;99.90;;;;;;5114586;28;20031;-74
2022/04/27 00:37:19;;;;;;;1.30;0.93;;;9.10;99.90;;;;;;5115274;28;20388;-74
2022/04/27 00:39:45;;;;;;;1.10;0.90;;;9.10;99.90;;;;;;5114443;28;20077;-74
2022/04/27 00:42:20;;;;;;;1.15;0.90;;;9.20;99.90;;;;;;5115239;28;20051;-73
2022/04/27 00:44:46;;;;;;;1.10;0.85;;;9.10;99.90;;;;;;5114270;28;20120;-74
2022/04/27 00:47:13;;;;;;;1.00;0.85;;;9.10;99.90;;;;;;5114984;28;20047;-73
2022/04/27 00:49:46;;;;;;;0.95;0.93;;;9.10;99.90;;;;;;5114439;28;20486;-73
2022/04/27 00:52:14;;;;;;;0.95;0.85;;;9.10;99.90;;;;;;5114443;28;20016;-74
2022/04/27 00:54:46;;;;;;;1.05;0.70;;;9.10;99.90;;;;;;5112946;28;20027;-73
2022/04/27 00:57:11;;;;;;;1.15;1.00;;;9.10;99.90;;;;;;5113665;28;20022;-74
2022/04/27 00:59:39;;;;;;;0.82;0.70;;;9.00;99.90;;;;;;5114720;28;20035;-74
2022/04/27 01:02:05;;;;;;;1.00;0.88;;;9.00;99.90;;;;;;5114710;28;20023;-74
2022/04/27 01:04:34;;;;;;;0.90;0.90;;;9.00;99.90;;;;;;5114603;28;20028;-74
2022/04/27 01:07:00;;;;;;;0.88;0.82;;;9.00;99.90;;;;;;5114034;28;20028;-74
2022/04/27 01:09:27;;;;;;;0.70;0.70;;;9.10;99.90;;;;;;5114289;28;20078;-74
2022/04/27 01:11:53;;;;;;;1.17;0.80;;;9.00;99.90;;;;;;5113679;28;20031;-74
2022/04/27 01:14:19;;;;;;;2.08;0.73;;;9.00;99.90;;;;;;5114305;28;20104;-74
2022/04/27 01:16:57;;;;;;;0.80;0.70;;;9.00;99.90;;;;;;5113919;28;20023;-74
2022/04/27 01:19:26;;;;;;;0.80;0.80;;;9.10;99.90;;;;;;5114361;28;20032;-74
2022/04/27 01:21:52;;;;;;;0.80;0.80;;;9.10;99.90;;;;;;5113715;28;20043;-74
2022/04/27 01:24:22;;;;;;;0.70;0.70;;;9.10;99.90;;;;;;5114211;28;20547;-73
2022/04/27 01:26:49;;;;;;;0.95;0.80;;;9.00;99.90;;;;;;5113551;28;20072;-74
2022/04/27 01:29:17;;;;;;;1.20;0.80;;;9.00;99.90;;;;;;5112847;28;20476;-73
2022/04/27 01:31:43;;;;;;;1.02;0.95;;;9.00;99.90;;;;;;5113461;28;20059;-74
2022/04/27 01:34:09;;;;;;;1.20;0.93;;;9.00;99.90;;;;;;5113865;27;20468;-73
2022/04/27 01:36:35;;;;;;;0.70;0.70;;;9.00;99.90;;;;;;5114054;28;20050;-73
2022/04/27 01:39:01;;;;;;;1.50;0.85;;;9.00;99.90;;;;;;5113294;28;20100;-73
2022/04/27 01:41:26;;;;;;;0.93;0.88;;;9.00;99.90;;;;;;5113722;28;20031;-73
2022/04/27 01:43:52;;;;;;;0.93;0.80;;;9.00;99.90;;;;;;5112998;28;20023;-73
2022/04/27 01:46:17;;;;;;;1.10;0.90;;;9.00;99.90;;;;;;5113852;28;20468;-73
2022/04/27 01:48:43;;;;;;;1.42;0.70;;;9.00;99.90;;;;;;5111863;28;20058;-73
2022/04/27 01:51:09;;;;;;;2.10;0.88;;;9.00;99.90;;;;;;5113779;28;20073;-73
2022/04/27 01:56:19;;;;;;;1.05;0.63;;;8.90;99.90;;;;;;5113488;28;20119;-73
2022/04/27 01:58:45;;;;;;;0.70;0.70;;;8.90;99.90;;;;;;5112462;28;20111;-73
2022/04/27 02:01:12;;;;;;;1.17;0.80;;;8.90;99.90;;;;;;5113584;28;20031;-73
2022/04/27 02:03:39;;;;;;;0.93;0.80;;;8.90;99.90;;;;;;5113563;28;20084;-73
2022/04/27 02:06:06;;;;;;;0.70;0.70;;;8.90;99.90;;;;;;5112604;28;20031;-74
2022/04/27 02:08:32;;;;;;;1.25;0.73;;;8.90;99.90;;;;;;5113382;28;20034;-73
2022/04/27 02:10:57;;;;;;;1.13;0.90;;;8.90;99.90;;;;;;5111539;28;20023;-72
2022/04/27 02:13:25;;;;;;;1.33;0.70;;;8.90;99.90;;;;;;5113414;27;20053;-73
2022/04/27 02:15:52;;;;;;;0.70;0.70;;;8.90;99.90;;;;;;5071963;28;20045;-73
2022/04/27 02:18:19;;;;;;;0.90;0.70;;;8.90;99.90;;;;;;5072325;28;20499;-73
2022/04/27 02:20:45;;;;;;;1.40;0.75;;;8.90;99.90;;;;;;5071976;28;20033;-73
2022/04/27 02:23:11;;;;;;;1.40;0.77;;;8.90;99.90;;;;;;5072585;28;20046;-73
2022/04/27 02:25:37;;;;;;;0.65;0.65;;;8.90;99.90;;;;;;5072515;28;20035;-73
2022/04/27 02:28:05;;;;;;;0.70;0.70;;;8.90;99.90;;;;;;5071870;28;20025;-73
2022/04/27 02:30:31;;;;;;;1.98;0.70;;;8.90;99.90;;;;;;5072457;28;20043;-73
2022/04/27 02:32:56;;;;;;;0.57;0.57;;;8.90;99.90;;;;;;5071778;28;20457;-73
2022/04/27 02:35:22;;;;;;;0.80;0.80;;;8.90;99.90;;;;;;5072033;28;20028;-73
2022/04/27 02:37:48;;;;;;;1.48;0.77;;;8.90;99.90;;;;;;5071626;28;20029;-70
2022/04/27 02:40:14;;;;;;;0.80;0.60;;;8.90;99.90;;;;;;5072186;28;20025;-73
2022/04/27 02:42:40;;;;;;;2.75;0.70;;;8.90;99.90;;;;;;5072215;28;20039;-72
2022/04/27 02:45:05;;;;;;;0.80;0.80;;;8.90;99.90;;;;;;5071695;28;20645;-73
2022/04/27 02:47:31;;;;;;;0.70;0.70;;;8.90;99.90;;;;;;5072107;28;20028;-73
2022/04/27 02:52:41;;;;;;;0.70;0.70;;;8.90;99.90;;;;;;5072042;28;20087;-73
2022/04/27 02:55:07;;;;;;;0.98;0.90;;;8.90;99.90;;;;;;5071307;28;20032;-74
2022/04/27 02:57:33;;;;;;;1.42;0.93;;;8.90;99.90;;;;;;5071939;28;20027;-73
2022/04/27 02:59:58;;;;;;;0.95;0.80;;;9.00;99.90;;;;;;5071575;28;20024;-74
2022/04/27 03:02:24;;;;;;;0.80;0.80;;;9.00;99.90;;;;;;5072191;28;20025;-73
2022/04/27 03:04:50;;;;;;;1.80;0.80;;;9.00;99.90;;;;;;5087214;28;20412;-73
2022/04/27 03:07:15;;;;;;;1.55;1.00;;;9.00;99.90;;;;;;5072020;28;20028;-73
2022/04/27 03:09:41;;;;;;;1.20;1.10;;;9.00;99.90;;;;;;5073434;28;20078;-73
2022/04/27 03:12:07;;;;;;;0.98;0.73;;;9.00;99.90;;;;;;5075632;28;20103;-71
2022/04/27 03:14:33;;;;;;;1.10;0.95;;;9.00;99.90;;;;;;5095430;28;20128;-72
2022/04/27 03:16:59;;;;;;;1.23;1.13;;;9.00;99.90;;;;;;5116195;28;20020;-72
2022/04/27 03:19:43;;;;;;;1.67;1.05;;;9.00;99.90;;;;;;5116415;28;20038;-72
2022/04/27 03:22:08;;;;;;;1.75;1.15;;;9.00;99.90;;;;;;5115799;28;20269;-73
2022/04/27 03:24:34;;;;;;;1.10;1.10;;;9.00;99.90;;;;;;5116650;28;20423;-73
2022/04/27 03:27:00;;;;;;;1.80;1.50;;;9.00;99.90;;;;;;5114706;28;20024;-72
2022/04/27 03:29:26;;;;;;;1.25;1.15;;;9.00;99.90;;;;;;5116715;28;20096;-72
2022/04/27 03:31:51;;;;;;;1.58;1.40;;;9.00;99.90;;;;;;5115882;28;20096;-72
2022/04/27 03:34:17;;;;;;;1.90;1.77;;;9.00;99.90;;;;;;5115168;28;20066;-72
2022/04/27 03:36:43;;;;;;;2.97;1.67;;;9.00;99.90;;;;;;5116451;28;20031;-73
2022/04/27 03:39:08;;;;;;;2.45;2.00;;;9.00;99.90;;;;;;5115694;28;20039;-73
2022/04/27 03:41:34;;;;;;;2.08;1.88;;;9.00;99.90;;;;;;5116409;28;20020;-72
2022/04/27 03:43:59;;;;;;;2.25;2.05;;;9.00;99.90;;;;;;5115639;28;20026;-72
2022/04/27 03:46:25;;;;;;;2.50;2.00;;;9.00;99.90;;;;;;5116320;28;20024;-73
2022/04/27 03:48:51;;;;;;;3.53;2.25;;;9.00;99.90;;;;;;5115621;28;20048;-72
2022/04/27 03:51:17;;;;;;;2.97;1.77;;;9.00;99.90;;;;;;5116143;28;20059;-73
2022/04/27 03:53:42;;;;;;;2.58;2.13;;;9.00;99.90;;;;;;5115999;28;20055;-72
2022/04/27 03:56:08;;;;;;;2.38;1.98;;;9.00;99.90;;;;;;5115439;28;20058;-71
2022/04/27 03:58:34;;;;;;;2.38;2.10;;;9.00;99.90;;;;;;5115896;28;20031;-73
2022/04/27 04:00:59;;;;;;;2.33;2.13;;;9.00;99.90;;;;;;5115265;28;20055;-73
2022/04/27 04:03:25;;;;;;;3.65;2.83;;;9.00;99.90;;;;;;5115703;28;20494;-73
2022/04/27 04:05:51;;;;;;;3.30;2.10;;;9.00;99.90;;;;;;5115864;28;20380;-73
2022/04/27 04:08:16;;;;;;;3.60;2.55;;;9.00;99.90;;;;;;5113837;28;20031;-73
2022/04/27 04:10:43;;;;;;;5.10;2.17;;;9.00;99.90;;;;;;5117113;27;20524;-73
2022/04/27 04:13:09;;;;;;;2.55;2.35;;;9.00;99.90;;;;;;5122993;27;20487;-73
2022/04/27 04:15:37;;;;;;;3.72;2.33;;;9.00;99.90;;;;;;5115290;28;20047;-73
2022/04/27 04:18:06;;;;;;;3.53;2.47;;;9.00;99.90;;;;;;5112943;28;20067;-74
2022/04/27 04:20:32;;;;;;;2.83;2.47;;;9.00;99.90;;;;;;5114427;28;20019;-73
2022/04/27 04:22:58;;;;;;;2.78;2.33;;;9.00;99.90;;;;;;5115308;28;20446;-74
2022/04/27 04:30:52;;;;;;;3.42;2.58;;;9.00;99.90;;;;;;5115201;28;20034;-72
2022/04/27 04:33:18;;;;;;;3.30;2.80;;;9.00;99.90;;;;;;5114649;28;20027;-72
2022/04/27 04:35:44;;;;;;;3.55;2.97;;;9.00;99.90;;;;;;5115469;28;20365;-73
2022/04/27 04:38:10;;;;;;;2.92;2.63;;;9.00;99.90;;;;;;5114217;28;20456;-72
2022/04/27 04:40:35;;;;;;;3.13;2.78;;;9.00;99.90;;;;;;5114793;28;20024;-73
2022/04/27 04:43:02;;;;;;;2.95;2.53;;;9.00;99.90;;;;;;5114116;28;20036;-72
2022/04/27 04:45:27;;;;;;;3.40;2.75;;;9.00;99.90;;;;;;5115000;28;20059;-72
2022/04/27 04:47:53;;;;;;;3.42;2.80;;;9.00;99.90;;;;;;5114337;28;20035;-72
2022/04/27 04:50:19;;;;;;;3.75;2.88;;;9.00;99.90;;;;;;5114239;28;20024;-72
2022/04/27 04:52:48;;;;;;;5.40;2.80;;;9.00;99.90;;;;;;5114509;28;20034;-73
2022/04/27 04:55:14;;;;;;;4.05;2.90;;;9.10;99.90;;;;;;5114195;28;20035;-72
2022/04/27 04:57:39;;;;;;;3.92;2.95;;;9.10;99.90;;;;;;5114334;28;20393;-72
2022/04/27 05:00:08;;;;;;;4.20;2.70;;;9.10;99.90;;;;;;5113946;28;20020;-72
2022/04/27 05:02:34;;;;;;;3.70;2.95;;;9.10;99.90;;;;;;5114572;28;20111;-72
2022/04/27 05:05:02;;;;;;;5.28;3.13;;;9.10;99.90;;;;;;5113535;28;20112;-72
2022/04/27 05:07:30;;;;;;;4.00;3.08;;;9.10;99.90;;;;;;5114381;28;20177;-71
2022/04/27 05:09:56;;;;;;;3.08;2.78;;;9.10;99.90;;;;;;5114515;28;20470;-71
2022/04/27 05:12:22;;;;;;;3.60;3.30;;;9.20;99.90;;;;;;5114529;28;20111;-71
2022/04/27 05:14:48;;;;;;;3.58;2.60;;;9.20;99.90;;;;;;5114125;28;20077;-72
2022/04/27 05:17:14;;;;;;;3.75;3.00;;;9.20;99.90;;;;;;5113694;28;20626;-72
2022/04/27 05:19:39;;;;;;;4.53;2.90;;;9.20;99.90;;;;;;5113878;28;20035;-72
2022/04/27 05:22:05;;;;;;;3.22;2.92;;;9.20;99.90;;;;;;5113699;28;20047;-73
2022/04/27 05:24:31;;;;;;;4.95;3.65;;;9.20;99.90;;;;;;5112955;28;20092;-72
2022/04/27 05:26:56;;;;;;;6.03;3.22;;;9.20;99.90;;;;;;5113729;28;20019;-73
2022/04/27 05:32:07;;;;;;;5.43;3.40;;;9.20;99.90;;;;;;5111960;28;20068;-73
2022/04/27 05:34:33;;;;;;;4.45;3.67;;;9.20;99.90;;;;;;5112707;28;20121;-71
2022/04/27 05:37:00;;;;;;;4.53;3.58;;;9.30;99.90;;;;;;5112114;28;20106;-71
2022/04/27 05:39:26;;;;;;;4.85;3.40;;;9.30;99.90;;;;;;5112711;28;20032;-71
2022/04/27 05:41:55;;;;;;;4.95;3.42;;;9.30;99.90;;;;;;5112469;28;20027;-71
2022/04/27 05:44:23;;;;;;;4.60;3.45;;;9.30;99.90;;;;;;5112102;28;20427;-72
2022/04/27 05:46:53;;;;;;;4.32;3.00;;;9.30;99.90;;;;;;5112901;28;20107;-72
2022/04/27 05:49:20;;;;;;;4.82;3.05;;;9.30;99.90;;;;;;5112596;28;20027;-71
2022/04/27 05:51:46;;;;;;;4.22;3.08;;;9.40;99.90;;;;;;5113374;28;20019;-71
2022/04/27 05:54:16;;;;;;;5.22;3.78;;;9.30;99.90;;;;;;5112634;28;20069;-70
2022/04/27 05:56:43;;;;;;;4.43;3.60;;;9.40;99.90;;;;;;5113549;28;20023;-72
2022/04/27 05:59:12;;;;;;;4.18;3.38;;;9.40;99.90;;;;;;5112830;28;20036;-72
2022/04/27 06:01:38;;;;;;;8.70;3.30;;;9.40;99.90;;;;;;5113084;28;20429;-71
2022/04/27 06:04:04;;;;;;;5.18;3.28;;;9.40;99.90;;;;;;5112526;28;20023;-71
2022/04/27 06:06:30;;;;;;;4.90;2.80;;;9.40;99.90;;;;;;5113116;28;20028;-71
2022/04/27 06:08:56;;;;;;;4.70;3.20;;;9.40;99.90;;;;;;5113164;28;20088;-71
2022/04/27 06:11:22;;;;;;;3.75;2.72;;;9.40;99.90;;;;;;5112219;28;20426;-71
2022/04/27 06:13:48;;;;;;;5.68;3.00;;;9.40;99.90;;;;;;5112572;28;20055;-71
2022/04/27 06:16:14;;;;;;;3.15;2.75;;;9.40;99.90;;;;;;5112467;28;20464;-71
2022/04/27 06:18:41;;;;;;;5.57;3.03;;;9.40;99.90;;;;;;5112805;28;20032;-72
2022/04/27 06:21:10;;;;;;;5.55;2.88;;;9.40;99.90;;;;;;5112156;28;20024;-71
2022/04/27 06:23:37;;;;;;;3.70;3.10;;;9.40;99.90;;;;;;5111460;28;20047;-71
2022/04/27 06:26:05;;;;;;;5.00;2.85;;;9.40;99.90;;;;;;5112236;28;20023;-72
2022/04/27 06:28:31;;;;;;;3.55;2.83;;;9.40;99.90;;;;;;5111347;28;20127;-70
2022/04/27 06:30:57;;;;;;;7.35;2.78;;;9.40;99.90;;;;;;5112682;28;20038;-71
2022/04/27 06:33:22;;;;;;;3.67;3.03;;;9.40;99.90;;;;;;5112134;28;20346;-72
2022/04/27 06:35:48;;;;;;;7.32;3.03;;;9.50;99.90;;;;;;5112852;28;20492;-71
2022/04/27 06:38:13;;;;;;;4.72;2.88;;;9.40;99.90;;;;;;5111627;28;20032;-71
2022/04/27 06:40:40;;;;;;;4.72;2.45;;;9.50;99.90;;;;;;5111006;28;20092;-72
2022/04/27 06:43:07;;;;;;;5.45;2.85;;;9.50;99.90;;;;;;5111370;28;20063;-72
2022/04/27 06:45:35;;;;;;;2.65;2.22;;;9.50;99.90;;;;;;5112482;28;20026;-72
2022/04/27 06:48:02;;;;;;;4.43;2.30;;;9.50;99.90;;;;;;5112310;28;20503;-72
2022/04/27 06:50:27;;;;;;;2.47;2.28;;;9.50;99.90;;;;;;5112069;28;20118;-73
2022/04/27 06:52:54;;;;;;;3.80;2.92;;;9.50;99.90;;;;;;5112594;28;20102;-72
2022/04/27 06:55:20;;;;;;;2.85;2.35;;;9.60;99.90;;;;;;5111739;28;20106;-72
2022/04/27 06:57:45;;;;;;;2.83;2.40;;;9.60;99.90;;;;;;5112020;28;20054;-72
2022/04/27 07:00:12;;;;;;;2.58;2.13;;;9.70;99.90;;;;;;5111394;28;20023;-71
2022/04/27 07:02:41;;;;;;;3.92;1.90;;;9.70;99.90;;;;;;5112143;28;20027;-71
2022/04/27 07:05:12;;;;;;;2.97;2.50;;;9.80;99.90;;;;;;5111670;28;20028;-71
2022/04/27 07:07:38;;;;;;;2.45;2.17;;;9.90;99.90;;;;;;5112485;28;20119;-72
2022/04/27 07:10:04;;;;;;;2.80;2.33;;;9.90;99.90;;;;;;5112291;28;20032;-71
2022/04/27 07:12:29;;;;;;;4.78;2.75;;;10.00;99.90;;;;;;5112269;28;20031;-71
2022/04/27 07:14:56;;;;;;;2.92;2.10;;;10.10;99.90;;;;;;5111987;28;20326;-72
2022/04/27 07:17:22;;;;;;;2.97;2.10;;;10.10;99.90;;;;;;5111650;28;20107;-72
2022/04/27 07:19:47;;;;;;;2.60;2.13;;;10.20;99.90;;;;;;5112161;28;20432;-71
2022/04/27 07:22:13;;;;;;;5.32;2.50;;;10.30;99.90;;;;;;5111165;28;20020;-72
2022/04/27 07:24:39;;;;;;;3.85;2.10;;;10.30;99.90;;;;;;5111882;28;20031;-71
2022/04/27 07:27:05;;;;;;;4.97;2.97;;;10.40;99.90;;;;;;5112242;28;20380;-72
2022/04/27 07:29:31;;;;;;;2.60;2.40;;;10.40;99.90;;;;;;5112029;28;20031;-72
2022/04/27 07:31:59;;;;;;;4.75;2.53;;;10.50;99.90;;;;;;5111882;28;20030;-72
2022/04/27 07:34:25;;;;;;;5.57;2.60;;;10.60;99.90;;;;;;5111696;28;20019;-71
2022/04/27 07:36:51;;;;;;;4.85;2.72;;;10.60;99.90;;;;;;5112190;28;20453;-72
2022/04/27 07:39:17;;;;;;;5.53;2.95;;;10.60;99.90;;;;;;5109929;28;20046;-72
2022/04/27 07:41:45;;;;;;;4.43;2.90;;;10.60;99.90;;;;;;5112241;28;20032;-71
2022/04/27 07:44:11;;;;;;;3.92;3.03;;;10.60;99.90;;;;;;5111407;28;20522;-71
2022/04/27 07:46:37;;;;;;;4.40;3.10;;;10.60;99.90;;;;;;5111998;28;20031;-71
2022/04/27 07:49:02;;;;;;;3.80;3.30;;;10.60;99.90;;;;;;5112191;28;20031;-71
2022/04/27 07:51:28;;;;;;;12.40;3.63;;;10.70;99.90;;;;;;5111100;28;20020;-71
2022/04/27 07:53:54;;;;;;;3.80;2.90;;;10.70;99.90;;;;;;5111752;28;20060;-71
2022/04/27 07:56:19;;;;;;;4.07;2.80;;;10.70;99.90;;;;;;5113686;28;20023;-72
2022/04/27 07:58:45;;;;;;;4.32;3.60;;;10.70;99.90;;;;;;5115435;28;20032;-72
2022/04/27 08:01:11;;;;;;;4.32;3.38;;;10.70;99.90;;;;;;5113601;28;20210;-71
2022/04/27 08:03:37;;;;;;;6.25;3.75;;;10.70;99.90;;;;;;5115837;28;20023;-72
2022/04/27 08:06:04;;;;;;;6.22;3.33;;;10.80;99.90;;;;;;5115662;28;20072;-72
2022/04/27 08:08:33;;;;;;;6.32;3.47;;;10.80;99.90;;;;;;5114955;28;20051;-72
2022/04/27 08:10:59;;;;;;;5.20;3.97;;;10.80;99.90;;;;;;5115522;28;20023;-72
2022/04/27 08:13:24;;;;;;;5.38;3.40;;;10.90;99.90;;;;;;5114662;28;20022;-72
2022/04/27 08:15:50;;;;;;;5.88;3.60;;;10.90;99.90;;;;;;5115320;28;20035;-72
2022/04/27 08:18:16;;;;;;;4.88;3.60;;;10.90;99.90;;;;;;5114788;28;20032;-71
2022/04/27 08:23:29;;;;;;;4.25;3.72;;;10.90;99.90;;;;;;5114812;28;20536;-72
2022/04/27 08:25:58;;;;;;;4.10;3.42;;;10.90;99.90;;;;;;5115306;28;20019;-72
2022/04/27 08:28:24;;;;;;;5.45;4.22;;;11.00;99.90;;;;;;5114626;28;20069;-71
2022/04/27 08:30:50;;;;;;;5.60;4.63;;;11.00;99.90;;;;;;5115137;28;20051;-71
2022/04/27 08:33:17;;;;;;;7.80;4.18;;;11.00;99.90;;;;;;5114585;27;20023;-71
2022/04/27 08:35:43;;;;;;;7.60;4.15;;;11.00;99.90;;;;;;5115251;28;20027;-72
2022/04/27 08:38:10;;;;;;;10.48;4.10;;;11.00;99.90;;;;;;5115009;28;20085;-71
2022/04/27 08:40:40;;;;;;;5.60;4.30;;;11.00;99.90;;;;;;5114460;28;20046;-71
2022/04/27 08:43:09;;;;;;;5.32;4.15;;;11.00;99.90;;;;;;5114623;28;20486;-72
2022/04/27 08:45:35;;;;;;;5.55;3.78;;;11.10;99.90;;;;;;5113570;28;20119;-72
2022/04/27 08:48:01;;;;;;;6.20;3.90;;;11.10;99.90;;;;;;5114350;28;20031;-71
2022/04/27 08:50:28;;;;;;;10.73;4.32;;;11.20;99.90;;;;;;5114271;28;20085;-71
2022/04/27 08:52:55;;;;;;;5.22;3.78;;;11.20;99.90;;;;;;5114612;28;20042;-72
2022/04/27 08:55:22;;;;;;;6.63;4.07;;;11.20;99.90;;;;;;5113843;28;20464;-72
2022/04/27 08:57:48;;;;;;;5.00;4.50;;;11.20;99.90;;;;;;5114630;28;20365;-71
2022/04/27 09:00:19;;;;;;;5.78;4.03;;;11.20;99.90;;;;;;5114132;28;20069;-71
2022/04/27 09:02:45;;;;;;;6.07;4.28;;;11.20;99.90;;;;;;5114666;28;20031;-71
2022/04/27 09:05:21;;;;;;;7.03;5.22;;;11.20;99.90;;;;;;5114557;27;20028;-71
2022/04/27 09:07:57;;;;;;;6.45;5.15;;;11.20;99.90;;;;;;5113155;28;20036;-72
2022/04/27 09:10:25;;;;;;;6.45;5.20;;;11.20;99.90;;;;;;5113842;28;20035;-71
2022/04/27 09:12:57;;;;;;;5.75;5.15;;;11.20;99.90;;;;;;5114390;28;20081;-72
2022/04/27 09:15:26;;;;;;;6.90;5.45;;;11.20;99.90;;;;;;5113363;28;20176;-71
2022/04/27 09:20:57;;;;;;;5.93;5.07;;;11.20;99.90;;;;;;5113754;28;20087;-72
2022/04/27 09:23:29;;;;;;;5.82;5.20;;;11.20;99.90;;;;;;5113618;28;20023;-72
2022/04/27 09:25:57;;;;;;;5.82;5.00;;;11.20;99.90;;;;;;5114084;28;20019;-71
2022/04/27 09:28:25;;;;;;;6.72;5.38;;;11.20;99.90;;;;;;5113454;28;20046;-71
2022/04/27 09:30:51;;;;;;;6.75;5.07;;;11.20;99.90;;;;;;5113743;28;20342;-72
2022/04/27 09:33:37;;;;;;;6.03;4.90;;;11.20;99.90;;;;;;5113406;28;20210;-72
2022/04/27 09:36:25;;;;;;;6.47;5.63;;;11.10;99.90;;;;;;5114027;28;20016;-72
2022/04/27 09:38:52;;;;;;;10.73;6.00;;;11.10;99.90;;;;;;5113830;28;20346;-71
2022/04/27 09:41:42;;;;;;;7.95;5.63;;;11.10;99.90;;;;;;5113262;28;20031;-72
2022/04/27 09:44:10;;;;;;;6.32;5.38;;;11.10;99.90;;;;;;5113470;28;20380;-72
2022/04/27 09:46:40;;;;;;;6.65;5.65;;;11.10;99.90;;;;;;5112902;28;20071;-72
2022/04/27 09:49:09;;;;;;;6.70;5.85;;;11.10;99.90;;;;;;5113686;28;20122;-72
2022/04/27 09:51:49;;;;;;;8.00;6.60;;;11.00;99.90;;;;;;5113172;28;20671;-72
2022/04/27 09:54:23;;;;;;;7.45;5.65;;;11.10;99.90;;;;;;5113607;28;20027;-72
2022/04/27 09:56:56;;;;;;;6.57;5.85;;;11.10;99.90;;;;;;5113243;28;20512;-71
2022/04/27 09:59:29;;;;;;;8.10;6.13;;;11.10;99.90;;;;;;5112933;28;20048;-72
2022/04/27 10:01:59;;;;;;;7.20;5.70;;;11.10;99.90;;;;;;5113554;28;20019;-72
2022/04/27 10:04:29;;;;;;;6.03;5.40;;;11.10;99.90;;;;;;5112745;28;20030;-71
2022/04/27 10:07:00;;;;;;;6.10;5.50;;;11.10;99.90;;;;;;5112970;28;20472;-71
2022/04/27 10:09:30;;;;;;;6.25;5.60;;;11.10;99.90;;;;;;5112495;28;20515;-70
2022/04/27 10:11:58;;;;;;;6.35;5.60;;;11.10;99.90;;;;;;5113220;28;20077;-71
2022/04/27 10:14:25;;;;;;;8.88;5.85;;;11.10;99.90;;;;;;5112242;28;20043;-71
2022/04/27 10:16:52;;;;;;;7.40;6.05;;;11.10;99.90;;;;;;5113108;28;20028;-72
2022/04/27 10:19:18;;;;;;;6.10;5.47;;;11.20;99.90;;;;;;5111654;28;20040;-71
2022/04/27 10:22:00;;;;;;;6.20;5.13;;;11.20;99.90;;;;;;5112724;27;20034;-71
2022/04/27 10:24:34;;;;;;;8.60;6.05;;;11.20;99.90;;;;;;5112343;28;20030;-72
2022/04/27 10:27:26;;;;;;;5.57;5.03;;;11.20;99.90;;;;;;5113002;28;20024;-72
2022/04/27 10:30:01;;;;;;;6.97;5.30;;;11.20;99.90;;;;;;5113125;27;20484;-71
2022/04/27 10:32:35;;;;;;;6.50;5.90;;;11.30;99.90;;;;;;5112408;28;20031;-71
2022/04/27 10:35:13;;;;;;;6.18;5.57;;;11.30;99.90;;;;;;5113003;28;20411;-71
2022/04/27 10:37:47;;;;;;;10.38;5.85;;;11.30;99.90;;;;;;5112176;28;20284;-71
2022/04/27 10:40:32;;;;;;;5.60;5.10;;;11.30;99.90;;;;;;5112657;28;20044;-72
2022/04/27 10:43:07;;;;;;;6.00;5.40;;;11.30;99.90;;;;;;5112650;28;20027;-72
2022/04/27 10:45:34;;;;;;;7.30;5.40;;;11.30;99.90;;;;;;5110773;28;20414;-72
2022/04/27 10:48:03;;;;;;;6.30;5.70;;;11.30;99.90;;;;;;5112185;28;20089;-72
2022/04/27 10:50:31;;;;;;;6.15;5.65;;;11.30;99.90;;;;;;5111836;28;20028;-71
2022/04/27 10:53:13;;;;;;;7.53;6.28;;;11.30;99.90;;;;;;5111246;28;20449;-71
2022/04/27 10:55:45;;;;;;;6.68;6.05;;;11.40;99.90;;;;;;5112005;28;20024;-71
2022/04/27 10:58:30;;;;;;;6.57;5.90;;;11.40;99.90;;;;;;5112513;28;20064;-70
2022/04/27 11:00:58;;;;;;;7.80;6.00;;;11.50;99.90;;;;;;5112428;28;20156;-71
2022/04/27 11:03:38;;;;;;;6.90;5.53;;;11.60;99.90;;;;;;5111907;28;20031;-72
2022/04/27 11:06:09;;;;;;;8.30;5.35;;;11.60;99.90;;;;;;5112385;28;20107;-71
2022/04/27 11:09:02;;;;;;;8.43;5.55;;;11.60;99.90;;;;;;5111927;28;20027;-71
2022/04/27 11:11:28;;;;;;;7.70;5.28;;;11.70;99.90;;;;;;5111699;28;20080;-72
2022/04/27 11:14:03;;;;;;;5.15;4.65;;;11.70;99.90;;;;;;5112076;28;20078;-71
2022/04/27 11:16:28;;;;;;;8.38;4.50;;;11.80;99.90;;;;;;5111715;28;20027;-71
2022/04/27 11:18:59;;;;;;;4.93;4.38;;;11.80;99.90;;;;;;5111904;28;20039;-70
2022/04/27 11:21:30;;;;;;;5.88;4.85;;;11.80;99.90;;;;;;5111670;28;20034;-71
2022/04/27 11:23:58;;;;;;;6.65;5.10;;;11.90;99.90;;;;;;5112631;28;20035;-71
2022/04/27 11:26:24;;;;;;;6.00;4.80;;;12.00;99.90;;;;;;5111858;28;20122;-71
2022/04/27 11:28:53;;;;;;;9.90;4.80;;;12.00;99.90;;;;;;5112252;28;20032;-71
2022/04/27 11:31:19;;;;;;;6.57;5.03;;;12.10;99.90;;;;;;5114697;28;20102;-72
2022/04/27 11:33:45;;;;;;;5.88;4.40;;;12.10;99.50;;;;;;5115658;28;20464;-71
2022/04/27 11:36:23;;;;;;;9.73;4.82;;;12.10;99.10;;;;;;5116283;28;20039;-71
2022/04/27 11:38:50;;;;;;;7.45;4.28;;;12.10;99.10;;;;;;5116101;28;20043;-71
2022/04/27 11:41:21;;;;;;;4.93;4.30;;;12.10;99.10;;;;;;5116083;28;20034;-71
2022/04/27 11:43:47;;;;;;;9.35;4.80;;;12.10;99.20;;;;;;5115614;28;20027;-71
2022/04/27 11:46:13;;;;;;;5.45;4.63;;;12.10;98.80;;;;;;5115943;28;20126;-71
2022/04/27 11:48:39;;;;;;;4.40;4.00;;;12.10;98.50;;;;;;5115225;28;20030;-72
2022/04/27 11:51:08;;;;;;;8.43;5.00;;;12.20;98.70;;;;;;5115932;28;20028;-71
2022/04/27 11:53:47;;;;;;;5.10;4.57;;;12.30;98.70;;;;;;5115338;27;20166;-71
2022/04/27 11:56:14;;;;;;;5.53;4.30;;;12.30;98.90;;;;;;5115765;28;20054;-71
2022/04/27 11:58:40;;;;;;;5.75;4.10;;;12.30;98.90;;;;;;5115199;28;20036;-71
2022/04/27 12:01:06;;;;;;;6.30;4.57;;;12.30;98.50;;;;;;5115659;28;20380;-71
2022/04/27 12:03:39;;;;;;;5.20;4.70;;;12.40;98.40;;;;;;5114648;28;20387;-71
2022/04/27 12:06:05;;;;;;;5.07;4.57;;;12.40;98.00;;;;;;5115423;28;20028;-71
2022/04/27 12:08:33;;;;;;;5.60;4.63;;;12.40;97.40;;;;;;5115034;28;20042;-71
2022/04/27 12:10:59;;;;;;;5.63;5.10;;;12.40;97.30;;;;;;5115584;28;20023;-71
2022/04/27 12:13:25;;;;;;;4.97;4.47;;;12.40;97.30;;;;;;5114803;28;20464;-71
2022/04/27 12:15:54;;;;;;;6.07;4.65;;;12.50;97.30;;;;;;5115666;28;20034;-71
2022/04/27 12:18:22;;;;;;;7.72;3.78;;;12.50;96.30;;;;;;5115317;28;20035;-71
2022/04/27 12:20:48;;;;;;;7.88;4.55;;;12.50;96.40;;;;;;5114918;28;20073;-71
2022/04/27 12:23:15;;;;;;;4.90;4.30;;;12.50;96.70;;;;;;5115454;28;20023;-71
2022/04/27 12:25:58;;;;;;;6.90;5.03;;;12.60;96.00;;;;;;5114567;28;20070;-71
2022/04/27 12:28:25;;;;;;;6.88;4.47;;;12.60;95.10;;;;;;5115315;28;20047;-71
2022/04/27 12:30:53;;;;;;;9.77;4.90;;;12.60;94.20;;;;;;5114740;28;20027;-71
2022/04/27 12:33:27;;;;;;;6.43;5.40;;;12.60;94.40;;;;;;5115252;28;20068;-72
2022/04/27 12:39:07;;;;;;;10.52;5.00;;;12.70;94.30;;;;;;5114545;28;20122;-72
2022/04/27 12:41:39;;;;;;;6.00;4.82;;;12.80;94.40;;;;;;5114183;28;20036;-72
2022/04/27 12:44:12;;;;;;;4.90;4.40;;;12.80;93.80;;;;;;5115165;28;20035;-72
2022/04/27 12:47:00;;;;;;;6.15;5.55;;;12.80;94.10;;;;;;5114409;28;20115;-72
2022/04/27 12:49:34;;;;;;;6.32;4.90;;;12.80;94.10;;;;;;5114333;28;20088;-72
2022/04/27 12:52:33;;;;;;;7.68;5.18;;;12.80;94.10;;;;;;5115075;28;20016;-72
2022/04/27 12:55:09;;;;;;;6.38;4.82;;;12.80;94.30;;;;;;5114935;28;20063;-72
2022/04/27 12:57:55;;;;;;;6.15;4.88;;;12.80;93.70;;;;;;5114622;28;20031;-72
2022/04/27 13:00:40;;;;;;;6.50;4.93;;;12.80;93.50;;;;;;5114693;28;20036;-72
2022/04/27 13:03:10;;;;;;;6.55;5.40;;;12.80;93.10;;;;;;5114674;28;20027;-72
2022/04/27 13:05:37;;;;;;;6.30;4.93;;;12.80;92.90;;;;;;5114403;28;20035;-72
2022/04/27 13:08:04;;;;;;;6.13;5.50;;;12.90;93.30;;;;;;5114674;28;20016;-71
2022/04/27 13:13:18;;;;;;;10.77;5.38;;;12.90;92.10;;;;;;5114373;28;20051;-71
2022/04/27 13:15:45;;;;;;;8.07;5.53;;;13.00;91.30;;;;;;5113806;28;20089;-71
2022/04/27 13:18:12;;;;;;;6.82;5.43;;;12.90;91.00;;;;;;5114173;28;20022;-71
2022/04/27 13:20:39;;;;;;;7.45;5.50;;;12.90;90.70;;;;;;5113705;28;20027;-71
2022/04/27 13:23:06;;;;;;;8.55;5.75;;;13.00;90.60;;;;;;5114189;28;20111;-71